In Rescue
 
Open Full Screen Window  High Contrast Mode
Wind Gusting 00 knots
04
November 29, 2022 9:11 AM CST
Weather Information
Wind Direction
  250 °
Wind Speed
  04 kt (5 mph)
Wind Gust
  00 kt (0 mph)
Altimeter
29.69 in
Visibility
10 SM
Temperature
-08° C
18° F
Dewpoint
-12° C
10° F
Humidity
73%
1hr Rain Fall
00.00 in.
24hr Rain Fall
00.00 in.
Sky Condition
Clear
VFR

METAR KY49 291511Z AUTO 25004KT 10SM CLR M08/M12 A2969 RMK AO2 T10761125

FAA Disclaimer: The data displayed is for advisory purposes only and is not to be used for flight planning or operations.